sensor_id;sensor_type;location;lat;lon;timestamp;pressure;altitude;pressure_sealevel;temperature;humidity
14293;BME280;62290;59.420;17.842;2022-12-18T00:02:07;101739.09;;;21.07;21.46
14293;BME280;62290;59.420;17.842;2022-12-18T00:04:35;101732.38;;;21.00;21.40
14293;BME280;62290;59.420;17.842;2022-12-18T00:07:03;101739.91;;;21.09;21.08
14293;BME280;62290;59.420;17.842;2022-12-18T00:09:31;101738.06;;;21.09;21.33
14293;BME280;62290;59.420;17.842;2022-12-18T00:12:06;101736.34;;;21.08;21.35
14293;BME280;62290;59.420;17.842;2022-12-18T00:14:41;101733.56;;;21.10;21.40
14293;BME280;62290;59.420;17.842;2022-12-18T00:17:13;101736.16;;;21.11;20.95
14293;BME280;62290;59.420;17.842;2022-12-18T00:19:41;101739.91;;;21.09;21.51
14293;BME280;62290;59.420;17.842;2022-12-18T00:22:09;101736.25;;;21.10;21.21
14293;BME280;62290;59.420;17.842;2022-12-18T00:24:37;101730.88;;;21.10;21.39
14293;BME280;62290;59.420;17.842;2022-12-18T00:27:05;101734.38;;;21.12;20.97
14293;BME280;62290;59.420;17.842;2022-12-18T00:29:34;101720.97;;;21.12;21.44
14293;BME280;62290;59.420;17.842;2022-12-18T00:32:02;101708.78;;;21.06;21.37
14293;BME280;62290;59.420;17.842;2022-12-18T00:34:31;101727.84;;;21.16;21.17
14293;BME280;62290;59.420;17.842;2022-12-18T00:36:59;101721.44;;;21.18;21.04
14293;BME280;62290;59.420;17.842;2022-12-18T00:39:27;101720.50;;;21.19;21.04
14293;BME280;62290;59.420;17.842;2022-12-18T00:41:55;101714.84;;;21.24;21.24
14293;BME280;62290;59.420;17.842;2022-12-18T00:44:41;101705.91;;;21.23;21.12
14293;BME280;62290;59.420;17.842;2022-12-18T00:47:09;101712.03;;;21.25;21.16
14293;BME280;62290;59.420;17.842;2022-12-18T00:49:38;101727.06;;;21.28;21.24
14293;BME280;62290;59.420;17.842;2022-12-18T00:52:06;101721.63;;;21.29;20.93
14293;BME280;62290;59.420;17.842;2022-12-18T00:54:34;101717.78;;;21.33;21.23
14293;BME280;62290;59.420;17.842;2022-12-18T00:57:02;101724.50;;;21.40;21.12
14293;BME280;62290;59.420;17.842;2022-12-18T00:59:30;101721.25;;;21.49;21.25
14293;BME280;62290;59.420;17.842;2022-12-18T01:01:58;101730.63;;;21.57;21.04
14293;BME280;62290;59.420;17.842;2022-12-18T01:04:26;101739.25;;;21.62;20.97
14293;BME280;62290;59.420;17.842;2022-12-18T01:06:56;101728.25;;;21.66;20.70
14293;BME280;62290;59.420;17.842;2022-12-18T01:09:24;101735.31;;;21.67;20.60
14293;BME280;62290;59.420;17.842;2022-12-18T01:11:52;101741.38;;;21.71;20.84
14293;BME280;62290;59.420;17.842;2022-12-18T01:14:20;101746.53;;;21.74;20.76
14293;BME280;62290;59.420;17.842;2022-12-18T01:16:48;101744.63;;;21.76;20.72
14293;BME280;62290;59.420;17.842;2022-12-18T01:19:16;101742.88;;;21.75;20.96
14293;BME280;62290;59.420;17.842;2022-12-18T01:21:45;101741.81;;;21.77;20.91
14293;BME280;62290;59.420;17.842;2022-12-18T01:24:15;101745.28;;;21.79;21.00
14293;BME280;62290;59.420;17.842;2022-12-18T01:26:43;101738.00;;;21.81;20.97
14293;BME280;62290;59.420;17.842;2022-12-18T01:29:13;101733.38;;;21.83;20.59
14293;BME280;62290;59.420;17.842;2022-12-18T01:31:41;101734.16;;;21.85;20.80
14293;BME280;62290;59.420;17.842;2022-12-18T01:34:09;101731.22;;;21.90;20.69
14293;BME280;62290;59.420;17.842;2022-12-18T01:36:39;101722.00;;;21.94;20.75
14293;BME280;62290;59.420;17.842;2022-12-18T01:39:10;101721.69;;;21.98;20.65
14293;BME280;62290;59.420;17.842;2022-12-18T01:41:42;101705.50;;;22.00;20.88
14293;BME280;62290;59.420;17.842;2022-12-18T01:45:00;101715.19;;;22.02;20.72
14293;BME280;62290;59.420;17.842;2022-12-18T01:47:46;101705.31;;;22.03;20.64
14293;BME280;62290;59.420;17.842;2022-12-18T01:50:17;101704.34;;;22.04;20.46
14293;BME280;62290;59.420;17.842;2022-12-18T01:52:47;101714.88;;;22.07;20.49
14293;BME280;62290;59.420;17.842;2022-12-18T01:55:19;101707.78;;;22.06;20.40
14293;BME280;62290;59.420;17.842;2022-12-18T01:57:52;101708.84;;;22.03;20.84
14293;BME280;62290;59.420;17.842;2022-12-18T02:00:22;101719.75;;;22.00;20.56
14293;BME280;62290;59.420;17.842;2022-12-18T02:02:51;101675.03;;;21.73;20.72
14293;BME280;62290;59.420;17.842;2022-12-18T02:05:26;101711.16;;;21.95;20.63
14293;BME280;62290;59.420;17.842;2022-12-18T02:08:01;101710.41;;;21.93;21.00
14293;BME280;62290;59.420;17.842;2022-12-18T02:10:39;101703.41;;;21.91;20.64
14293;BME280;62290;59.420;17.842;2022-12-18T02:13:17;101706.28;;;21.88;20.73
14293;BME280;62290;59.420;17.842;2022-12-18T02:15:53;101710.91;;;21.86;20.93
14293;BME280;62290;59.420;17.842;2022-12-18T02:18:27;101703.13;;;21.81;20.72
14293;BME280;62290;59.420;17.842;2022-12-18T02:21:00;101700.44;;;21.81;21.04
14293;BME280;62290;59.420;17.842;2022-12-18T02:23:42;101710.50;;;21.78;20.86
14293;BME280;62290;59.420;17.842;2022-12-18T02:26:18;101707.06;;;21.76;21.00
14293;BME280;62290;59.420;17.842;2022-12-18T02:28:53;101713.28;;;21.76;20.94
14293;BME280;62290;59.420;17.842;2022-12-18T02:31:27;101700.75;;;21.77;21.36
14293;BME280;62290;59.420;17.842;2022-12-18T02:34:00;101705.22;;;21.76;21.43
14293;BME280;62290;59.420;17.842;2022-12-18T02:36:36;101708.97;;;21.74;21.09
14293;BME280;62290;59.420;17.842;2022-12-18T02:39:08;101709.84;;;21.74;20.97
14293;BME280;62290;59.420;17.842;2022-12-18T02:41:46;101693.25;;;21.68;21.14
14293;BME280;62290;59.420;17.842;2022-12-18T02:44:14;101702.75;;;21.73;21.38
14293;BME280;62290;59.420;17.842;2022-12-18T02:46:44;101635.91;;;21.42;21.35
14293;BME280;62290;59.420;17.842;2022-12-18T02:49:24;101680.97;;;21.78;21.14
14293;BME280;62290;59.420;17.842;2022-12-18T02:52:03;101688.06;;;21.79;20.86
14293;BME280;62290;59.420;17.842;2022-12-18T02:54:49;101694.94;;;21.83;21.12
14293;BME280;62290;59.420;17.842;2022-12-18T02:57:31;101687.50;;;21.88;20.89
14293;BME280;62290;59.420;17.842;2022-12-18T03:00:05;101689.03;;;21.92;20.82
14293;BME280;62290;59.420;17.842;2022-12-18T03:02:40;101685.94;;;21.98;20.67
14293;BME280;62290;59.420;17.842;2022-12-18T03:05:15;101690.03;;;22.03;20.98
14293;BME280;62290;59.420;17.842;2022-12-18T03:07:51;101685.34;;;22.07;21.03
14293;BME280;62290;59.420;17.842;2022-12-18T03:10:26;101686.97;;;22.09;20.87
14293;BME280;62290;59.420;17.842;2022-12-18T03:13:02;101671.41;;;22.14;20.71
14293;BME280;62290;59.420;17.842;2022-12-18T03:15:35;101681.09;;;22.17;20.53
14293;BME280;62290;59.420;17.842;2022-12-18T03:18:10;101679.94;;;22.21;20.52
14293;BME280;62290;59.420;17.842;2022-12-18T03:20:42;101669.09;;;22.23;20.64
14293;BME280;62290;59.420;17.842;2022-12-18T03:23:18;101653.09;;;22.21;20.77
14293;BME280;62290;59.420;17.842;2022-12-18T03:25:54;101662.84;;;22.22;20.40
14293;BME280;62290;59.420;17.842;2022-12-18T03:28:35;101669.84;;;22.25;20.38
14293;BME280;62290;59.420;17.842;2022-12-18T03:31:09;101661.78;;;22.25;20.51
14293;BME280;62290;59.420;17.842;2022-12-18T03:33:45;101657.59;;;22.21;20.63
14293;BME280;62290;59.420;17.842;2022-12-18T03:36:14;101669.09;;;22.23;20.53
14293;BME280;62290;59.420;17.842;2022-12-18T03:38:43;101672.72;;;22.22;20.47
14293;BME280;62290;59.420;17.842;2022-12-18T03:41:16;101664.78;;;22.20;20.48
14293;BME280;62290;59.420;17.842;2022-12-18T03:44:11;101673.91;;;22.18;20.56
14293;BME280;62290;59.420;17.842;2022-12-18T03:46:49;101672.09;;;22.18;20.58
14293;BME280;62290;59.420;17.842;2022-12-18T03:49:25;101673.69;;;22.21;20.71
14293;BME280;62290;59.420;17.842;2022-12-18T03:52:01;101675.41;;;22.22;20.71
14293;BME280;62290;59.420;17.842;2022-12-18T03:54:33;101664.66;;;22.22;20.51
14293;BME280;62290;59.420;17.842;2022-12-18T03:57:14;101672.72;;;22.22;20.72
14293;BME280;62290;59.420;17.842;2022-12-18T03:59:47;101666.50;;;22.21;20.68
14293;BME280;62290;59.420;17.842;2022-12-18T04:02:19;101663.03;;;22.19;20.89
14293;BME280;62290;59.420;17.842;2022-12-18T04:04:51;101664.91;;;22.19;20.52
14293;BME280;62290;59.420;17.842;2022-12-18T04:07:22;101662.84;;;22.22;20.56
14293;BME280;62290;59.420;17.842;2022-12-18T04:09:53;101671.44;;;22.27;20.65
14293;BME280;62290;59.420;17.842;2022-12-18T04:12:24;101678.44;;;22.30;20.60
14293;BME280;62290;59.420;17.842;2022-12-18T04:14:54;101661.25;;;22.32;20.57
14293;BME280;62290;59.420;17.842;2022-12-18T04:17:22;101655.13;;;22.30;20.74
14293;BME280;62290;59.420;17.842;2022-12-18T04:19:51;101674.50;;;22.35;20.57
14293;BME280;62290;59.420;17.842;2022-12-18T04:22:19;101662.78;;;22.36;20.49
14293;BME280;62290;59.420;17.842;2022-12-18T04:24:52;101671.72;;;22.37;20.30
14293;BME280;62290;59.420;17.842;2022-12-18T04:27:28;101670.41;;;22.42;20.36
14293;BME280;62290;59.420;17.842;2022-12-18T04:30:00;101673.69;;;22.47;20.54
14293;BME280;62290;59.420;17.842;2022-12-18T04:32:29;101656.44;;;22.37;20.43
14293;BME280;62290;59.420;17.842;2022-12-18T04:34:59;101661.88;;;22.50;20.52
14293;BME280;62290;59.420;17.842;2022-12-18T04:37:27;101662.63;;;22.52;20.36
14293;BME280;62290;59.420;17.842;2022-12-18T04:39:58;101650.88;;;22.53;20.18
14293;BME280;62290;59.420;17.842;2022-12-18T04:42:33;101644.78;;;22.51;20.38
14293;BME280;62290;59.420;17.842;2022-12-18T04:45:03;101647.56;;;22.49;20.35
14293;BME280;62290;59.420;17.842;2022-12-18T04:47:31;101643.34;;;22.45;20.41
14293;BME280;62290;59.420;17.842;2022-12-18T04:49:59;101637.34;;;22.42;20.52
14293;BME280;62290;59.420;17.842;2022-12-18T04:52:27;101641.09;;;22.39;20.52
14293;BME280;62290;59.420;17.842;2022-12-18T04:54:55;101642.06;;;22.38;20.29
14293;BME280;62290;59.420;17.842;2022-12-18T04:57:23;101619.69;;;22.25;20.67
14293;BME280;62290;59.420;17.842;2022-12-18T04:59:51;101626.25;;;22.34;20.34
14293;BME280;62290;59.420;17.842;2022-12-18T05:02:20;101620.13;;;22.32;20.53
14293;BME280;62290;59.420;17.842;2022-12-18T05:04:49;101615.94;;;22.28;20.55
14293;BME280;62290;59.420;17.842;2022-12-18T05:07:17;101623.31;;;22.24;20.39
14293;BME280;62290;59.420;17.842;2022-12-18T05:09:45;101622.56;;;22.22;20.59
14293;BME280;62290;59.420;17.842;2022-12-18T05:12:13;101610.88;;;22.23;20.34
14293;BME280;62290;59.420;17.842;2022-12-18T05:14:41;101614.44;;;22.24;20.31
14293;BME280;62290;59.420;17.842;2022-12-18T05:17:09;101610.88;;;22.23;20.54
14293;BME280;62290;59.420;17.842;2022-12-18T05:19:38;101619.47;;;22.28;20.44
14293;BME280;62290;59.420;17.842;2022-12-18T05:22:06;101608.81;;;22.27;20.73
14293;BME280;62290;59.420;17.842;2022-12-18T05:24:35;101617.13;;;22.24;20.40
14293;BME280;62290;59.420;17.842;2022-12-18T05:27:03;101612.81;;;22.21;20.58
14293;BME280;62290;59.420;17.842;2022-12-18T05:29:31;101607.66;;;22.18;20.42
14293;BME280;62290;59.420;17.842;2022-12-18T05:31:59;101613.88;;;22.19;20.54
14293;BME280;62290;59.420;17.842;2022-12-18T05:34:27;101607.66;;;22.18;20.54
14293;BME280;62290;59.420;17.842;2022-12-18T05:36:56;101604.97;;;22.18;20.89
14293;BME280;62290;59.420;17.842;2022-12-18T05:39:24;101605.81;;;22.19;20.51
14293;BME280;62290;59.420;17.842;2022-12-18T05:41:52;101593.22;;;22.19;20.84
14293;BME280;62290;59.420;17.842;2022-12-18T05:44:20;101602.06;;;22.21;20.58
14293;BME280;62290;59.420;17.842;2022-12-18T05:46:48;101601.09;;;22.22;20.51
14293;BME280;62290;59.420;17.842;2022-12-18T05:49:16;101597.44;;;22.23;20.76
14293;BME280;62290;59.420;17.842;2022-12-18T05:51:44;101595.50;;;22.25;20.67
14293;BME280;62290;59.420;17.842;2022-12-18T05:54:14;101600.69;;;22.28;20.40
14293;BME280;62290;59.420;17.842;2022-12-18T05:56:42;101594.44;;;22.28;20.65
14293;BME280;62290;59.420;17.842;2022-12-18T05:59:14;101598.94;;;22.27;20.46
14293;BME280;62290;59.420;17.842;2022-12-18T06:01:42;101597.13;;;22.28;20.73
14293;BME280;62290;59.420;17.842;2022-12-18T06:04:11;101591.75;;;22.28;20.53
14293;BME280;62290;59.420;17.842;2022-12-18T06:06:39;101591.09;;;22.24;20.46
14293;BME280;62290;59.420;17.842;2022-12-18T06:09:07;101584.97;;;22.22;20.77
14293;BME280;62290;59.420;17.842;2022-12-18T06:11:38;101590.56;;;22.19;20.42
14293;BME280;62290;59.420;17.842;2022-12-18T06:14:06;101586.38;;;22.15;20.49
14293;BME280;62290;59.420;17.842;2022-12-18T06:16:34;101581.00;;;22.15;20.93
14293;BME280;62290;59.420;17.842;2022-12-18T06:19:04;101585.38;;;22.16;20.63
14293;BME280;62290;59.420;17.842;2022-12-18T06:21:32;101579.25;;;22.14;20.70
14293;BME280;62290;59.420;17.842;2022-12-18T06:24:02;101581.00;;;22.15;20.60
14293;BME280;62290;59.420;17.842;2022-12-18T06:26:29;101573.91;;;22.14;20.91
14293;BME280;62290;59.420;17.842;2022-12-18T06:28:59;101574.75;;;22.14;20.98
14293;BME280;62290;59.420;17.842;2022-12-18T06:31:27;101563.16;;;22.14;20.69
14293;BME280;62290;59.420;17.842;2022-12-18T06:33:56;101561.47;;;22.13;20.72
14293;BME280;62290;59.420;17.842;2022-12-18T06:36:24;101566.91;;;22.11;20.62
14293;BME280;62290;59.420;17.842;2022-12-18T06:38:52;101568.72;;;22.11;20.75
14293;BME280;62290;59.420;17.842;2022-12-18T06:41:21;101576.78;;;22.11;20.77
14293;BME280;62290;59.420;17.842;2022-12-18T06:43:49;101578.72;;;22.09;20.73
14293;BME280;62290;59.420;17.842;2022-12-18T06:46:25;101577.75;;;22.10;20.76
14293;BME280;62290;59.420;17.842;2022-12-18T06:48:53;101578.84;;;22.07;20.91
14293;BME280;62290;59.420;17.842;2022-12-18T06:51:22;101573.25;;;22.10;20.87
14293;BME280;62290;59.420;17.842;2022-12-18T06:53:50;101580.53;;;22.08;20.76
14293;BME280;62290;59.420;17.842;2022-12-18T06:56:18;101581.31;;;22.10;20.72
14293;BME280;62290;59.420;17.842;2022-12-18T06:58:46;101586.69;;;22.10;20.64
14293;BME280;62290;59.420;17.842;2022-12-18T07:01:14;101584.00;;;22.10;20.64
14293;BME280;62290;59.420;17.842;2022-12-18T07:03:44;101584.75;;;22.12;20.75
14293;BME280;62290;59.420;17.842;2022-12-18T07:06:16;101605.25;;;22.13;20.63
14293;BME280;62290;59.420;17.842;2022-12-18T07:08:44;101602.47;;;22.15;20.73
14293;BME280;62290;59.420;17.842;2022-12-18T07:11:13;101603.22;;;22.17;20.51
14293;BME280;62290;59.420;17.842;2022-12-18T07:13:41;101599.59;;;22.18;20.50
14293;BME280;62290;59.420;17.842;2022-12-18T07:16:10;101586.03;;;22.20;20.83
14293;BME280;62290;59.420;17.842;2022-12-18T07:18:51;101591.34;;;22.21;20.60
14293;BME280;62290;59.420;17.842;2022-12-18T07:21:19;101594.97;;;22.20;20.73
14293;BME280;62290;59.420;17.842;2022-12-18T07:23:48;101588.06;;;22.16;20.56
14293;BME280;62290;59.420;17.842;2022-12-18T07:26:18;101549.47;;;21.92;20.69
14293;BME280;62290;59.420;17.842;2022-12-18T07:28:46;101595.16;;;22.17;20.81
14293;BME280;62290;59.420;17.842;2022-12-18T07:31:17;101595.16;;;22.17;20.72
14293;BME280;62290;59.420;17.842;2022-12-18T07:33:47;101595.28;;;22.16;20.76
14293;BME280;62290;59.420;17.842;2022-12-18T07:36:17;101593.22;;;22.19;20.67
14293;BME280;62290;59.420;17.842;2022-12-18T07:38:48;101576.16;;;22.07;20.42
14293;BME280;62290;59.420;17.842;2022-12-18T07:41:16;101595.16;;;22.17;20.71
14293;BME280;62290;59.420;17.842;2022-12-18T07:43:45;101586.44;;;22.13;20.60
14293;BME280;62290;59.420;17.842;2022-12-18T07:46:14;101595.50;;;22.12;20.85
14293;BME280;62290;59.420;17.842;2022-12-18T07:48:44;101591.28;;;22.08;20.47
14293;BME280;62290;59.420;17.842;2022-12-18T07:51:18;101588.50;;;22.10;20.59
14293;BME280;62290;59.420;17.842;2022-12-18T07:53:46;101604.63;;;22.10;20.76
14293;BME280;62290;59.420;17.842;2022-12-18T07:56:18;101590.38;;;21.95;20.53
14293;BME280;62290;59.420;17.842;2022-12-18T07:58:57;101610.28;;;22.05;20.60
14293;BME280;62290;59.420;17.842;2022-12-18T08:01:25;101605.75;;;22.06;20.61
14293;BME280;62290;59.420;17.842;2022-12-18T08:03:54;101602.13;;;22.07;20.78
14293;BME280;62290;59.420;17.842;2022-12-18T08:06:23;101610.19;;;22.07;20.49
14293;BME280;62290;59.420;17.842;2022-12-18T08:08:52;101599.31;;;22.08;20.76
14293;BME280;62290;59.420;17.842;2022-12-18T08:11:22;101589.44;;;22.09;20.85
14293;BME280;62290;59.420;17.842;2022-12-18T08:13:50;101584.09;;;22.09;21.02
14293;BME280;62290;59.420;17.842;2022-12-18T08:16:19;101589.25;;;22.12;20.60
14293;BME280;62290;59.420;17.842;2022-12-18T08:18:49;101581.19;;;22.12;20.83
14293;BME280;62290;59.420;17.842;2022-12-18T08:21:18;101567.91;;;22.10;20.88
14293;BME280;62290;59.420;17.842;2022-12-18T08:23:49;101571.13;;;22.16;20.61
14293;BME280;62290;59.420;17.842;2022-12-18T08:26:18;101572.63;;;22.20;20.78
14293;BME280;62290;59.420;17.842;2022-12-18T08:28:47;101572.53;;;22.21;20.79
14293;BME280;62290;59.420;17.842;2022-12-18T08:31:16;101579.28;;;22.27;20.86
14293;BME280;62290;59.420;17.842;2022-12-18T08:33:45;101583.59;;;22.29;20.96
14293;BME280;62290;59.420;17.842;2022-12-18T08:36:16;101556.84;;;22.15;20.65
14293;BME280;62290;59.420;17.842;2022-12-18T08:38:44;101515.75;;;22.00;20.96
14293;BME280;62290;59.420;17.842;2022-12-18T08:41:15;101554.28;;;22.26;20.64
14293;BME280;62290;59.420;17.842;2022-12-18T08:43:46;101571.78;;;22.32;20.46
14293;BME280;62290;59.420;17.842;2022-12-18T08:46:33;101570.94;;;22.31;20.78
14293;BME280;62290;59.420;17.842;2022-12-18T08:49:02;101569.00;;;22.33;20.69
14293;BME280;62290;59.420;17.842;2022-12-18T08:51:34;101577.81;;;22.35;20.81
14293;BME280;62290;59.420;17.842;2022-12-18T08:54:03;101571.78;;;22.32;20.67
14293;BME280;62290;59.420;17.842;2022-12-18T08:56:33;101578.78;;;22.34;20.83
14293;BME280;62290;59.420;17.842;2022-12-18T08:59:02;101574.38;;;22.33;20.76
14293;BME280;62290;59.420;17.842;2022-12-18T09:01:31;101571.78;;;22.32;20.72
14293;BME280;62290;59.420;17.842;2022-12-18T09:04:01;101567.06;;;22.35;20.92
14293;BME280;62290;59.420;17.842;2022-12-18T09:06:30;101563.63;;;22.33;20.73
14293;BME280;62290;59.420;17.842;2022-12-18T09:08:58;101564.69;;;22.31;20.86
14293;BME280;62290;59.420;17.842;2022-12-18T09:11:28;101555.44;;;22.22;20.77
14293;BME280;62290;59.420;17.842;2022-12-18T09:13:58;101548.78;;;22.15;20.75
14293;BME280;62290;59.420;17.842;2022-12-18T09:16:27;101570.28;;;22.28;20.98
14293;BME280;62290;59.420;17.842;2022-12-18T09:18:59;101568.66;;;22.25;21.20
14293;BME280;62290;59.420;17.842;2022-12-18T09:21:28;101555.97;;;22.27;21.01
14293;BME280;62290;59.420;17.842;2022-12-18T09:23:57;101547.06;;;22.27;21.00
14293;BME280;62290;59.420;17.842;2022-12-18T09:26:25;101554.28;;;22.26;21.18
14293;BME280;62290;59.420;17.842;2022-12-18T09:28:54;101548.13;;;22.24;21.31
14293;BME280;62290;59.420;17.842;2022-12-18T09:31:24;101548.91;;;22.26;21.10
14293;BME280;62290;59.420;17.842;2022-12-18T09:33:54;101541.69;;;22.27;21.24
14293;BME280;62290;59.420;17.842;2022-12-18T09:36:22;101536.22;;;22.28;21.21
14293;BME280;62290;59.420;17.842;2022-12-18T09:38:50;101541.41;;;22.31;21.28
14293;BME280;62290;59.420;17.842;2022-12-18T09:41:36;101514.22;;;22.36;21.36
14293;BME280;62290;59.420;17.842;2022-12-18T09:44:14;101513.25;;;22.37;21.26
14293;BME280;62290;59.420;17.842;2022-12-18T09:46:48;101518.41;;;22.40;21.25
14293;BME280;62290;59.420;17.842;2022-12-18T09:49:21;101523.69;;;22.41;21.25
14293;BME280;62290;59.420;17.842;2022-12-18T09:51:54;101491.44;;;22.41;21.20
14293;BME280;62290;59.420;17.842;2022-12-18T09:54:26;101502.72;;;22.46;20.93
14293;BME280;62290;59.420;17.842;2022-12-18T09:56:59;101496.28;;;22.49;21.14
14293;BME280;62290;59.420;17.842;2022-12-18T09:59:34;101502.19;;;22.54;21.00
14293;BME280;62290;59.420;17.842;2022-12-18T10:02:14;101501.44;;;22.52;21.03
14293;BME280;62290;59.420;17.842;2022-12-18T10:04:44;101490.91;;;22.49;21.29
14293;BME280;62290;59.420;17.842;2022-12-18T10:07:21;101482.72;;;22.50;21.21
14293;BME280;62290;59.420;17.842;2022-12-18T10:09:57;101489.81;;;22.51;21.01
14293;BME280;62290;59.420;17.842;2022-12-18T10:12:33;101499.72;;;22.51;21.18
14293;BME280;62290;59.420;17.842;2022-12-18T10:15:10;101486.28;;;22.51;21.19
14293;BME280;62290;59.420;17.842;2022-12-18T10:17:47;101465.97;;;22.47;21.28
14293;BME280;62290;59.420;17.842;2022-12-18T10:20:24;101467.47;;;22.51;21.47
14293;BME280;62290;59.420;17.842;2022-12-18T10:22:57;101462.97;;;22.51;21.45
14293;BME280;62290;59.420;17.842;2022-12-18T10:25:32;101485.31;;;22.52;21.57
14293;BME280;62290;59.420;17.842;2022-12-18T10:28:10;101475.53;;;22.51;21.34
14293;BME280;62290;59.420;17.842;2022-12-18T10:30:40;101494.25;;;22.52;21.42
14293;BME280;62290;59.420;17.842;2022-12-18T10:33:11;101487.47;;;22.47;21.27
14293;BME280;62290;59.420;17.842;2022-12-18T10:35:41;101483.50;;;22.52;21.14
14293;BME280;62290;59.420;17.842;2022-12-18T10:38:22;101474.13;;;22.45;21.49
14293;BME280;62290;59.420;17.842;2022-12-18T10:40:53;101482.50;;;22.53;21.38
14293;BME280;62290;59.420;17.842;2022-12-18T10:43:24;101488.88;;;22.52;21.60
14293;BME280;62290;59.420;17.842;2022-12-18T10:46:02;101436.97;;;22.14;21.44
14293;BME280;62290;59.420;17.842;2022-12-18T10:48:38;101492.50;;;22.51;21.48
14293;BME280;62290;59.420;17.842;2022-12-18T10:51:08;101496.16;;;22.50;21.29
14293;BME280;62290;59.420;17.842;2022-12-18T10:53:41;101468.88;;;22.44;21.52
14293;BME280;62290;59.420;17.842;2022-12-18T10:56:10;101485.94;;;22.55;21.77
14293;BME280;62290;59.420;17.842;2022-12-18T10:58:38;101483.03;;;22.58;21.34
14293;BME280;62290;59.420;17.842;2022-12-18T11:01:09;101482.81;;;22.61;21.57
14293;BME280;62290;59.420;17.842;2022-12-18T11:03:41;101489.97;;;22.62;21.47
14293;BME280;62290;59.420;17.842;2022-12-18T11:06:11;101489.97;;;22.62;21.64
14293;BME280;62290;59.420;17.842;2022-12-18T11:08:40;101484.13;;;22.68;21.53
14293;BME280;62290;59.420;17.842;2022-12-18T11:11:18;101500.03;;;22.71;21.52
14293;BME280;62290;59.420;17.842;2022-12-18T11:13:58;101507.88;;;22.74;21.57
14293;BME280;62290;59.420;17.842;2022-12-18T11:16:30;101502.41;;;22.76;21.27
14293;BME280;62290;59.420;17.842;2022-12-18T11:19:17;101498.75;;;22.77;22.07
14293;BME280;62290;59.420;17.842;2022-12-18T11:21:49;101481.97;;;22.73;22.12
14293;BME280;62290;59.420;17.842;2022-12-18T11:24:24;101481.44;;;22.81;22.18
14293;BME280;62290;59.420;17.842;2022-12-18T11:26:55;101481.22;;;22.84;22.21
14293;BME280;62290;59.420;17.842;2022-12-18T11:29:32;101472.06;;;22.87;22.27
14293;BME280;62290;59.420;17.842;2022-12-18T11:32:30;101470.38;;;22.86;21.95
14293;BME280;62290;59.420;17.842;2022-12-18T11:35:04;101482.81;;;22.87;22.09
14293;BME280;62290;59.420;17.842;2022-12-18T11:37:38;101444.56;;;22.58;22.22
14293;BME280;62290;59.420;17.842;2022-12-18T11:40:14;101488.44;;;22.84;22.14
14293;BME280;62290;59.420;17.842;2022-12-18T11:42:49;101487.44;;;22.85;22.04
14293;BME280;62290;59.420;17.842;2022-12-18T11:45:26;101470.59;;;22.83;22.03
14293;BME280;62290;59.420;17.842;2022-12-18T11:47:58;101471.63;;;22.93;22.17
14293;BME280;62290;59.420;17.842;2022-12-18T11:50:33;101472.38;;;22.95;21.90
14293;BME280;62290;59.420;17.842;2022-12-18T11:53:10;101451.75;;;22.83;22.02
14293;BME280;62290;59.420;17.842;2022-12-18T11:55:46;101473.00;;;22.98;22.00
14293;BME280;62290;59.420;17.842;2022-12-18T11:58:22;101465.81;;;22.99;21.83
14293;BME280;62290;59.420;17.842;2022-12-18T12:01:16;101469.81;;;22.93;22.03
14293;BME280;62290;59.420;17.842;2022-12-18T12:04:03;101477.75;;;22.95;22.21
14293;BME280;62290;59.420;17.842;2022-12-18T12:06:43;101474.41;;;23.04;21.94
14293;BME280;62290;59.420;17.842;2022-12-18T12:09:20;101462.94;;;23.13;21.80
14293;BME280;62290;59.420;17.842;2022-12-18T12:11:59;101463.38;;;23.19;21.57
14293;BME280;62290;59.420;17.842;2022-12-18T12:14:45;101466.44;;;23.26;21.52
14293;BME280;62290;59.420;17.842;2022-12-18T12:17:22;101481.84;;;23.37;21.49
14293;BME280;62290;59.420;17.842;2022-12-18T12:19:59;101486.63;;;23.44;21.33
14293;BME280;62290;59.420;17.842;2022-12-18T12:22:36;101482.75;;;23.48;21.46
14293;BME280;62290;59.420;17.842;2022-12-18T12:25:20;101491.69;;;23.49;21.92
14293;BME280;62290;59.420;17.842;2022-12-18T12:28:01;101497.31;;;23.46;22.42
14293;BME280;62290;59.420;17.842;2022-12-18T12:30:39;101489.31;;;23.44;22.93
14293;BME280;62290;59.420;17.842;2022-12-18T12:33:23;101490.66;;;23.39;22.99
14293;BME280;62290;59.420;17.842;2022-12-18T12:36:01;101485.38;;;23.37;22.86
14293;BME280;62290;59.420;17.842;2022-12-18T12:38:41;101480.94;;;23.36;22.89
14293;BME280;62290;59.420;17.842;2022-12-18T12:41:20;101489.69;;;23.40;22.70
14293;BME280;62290;59.420;17.842;2022-12-18T12:44:08;101490.09;;;23.33;22.58
14293;BME280;62290;59.420;17.842;2022-12-18T12:46:41;101490.84;;;23.35;22.56
14293;BME280;62290;59.420;17.842;2022-12-18T12:49:13;101481.84;;;23.37;22.38
14293;BME280;62290;59.420;17.842;2022-12-18T12:51:45;101485.56;;;23.34;22.20
14293;BME280;62290;59.420;17.842;2022-12-18T12:54:19;101496.34;;;23.34;22.31
14293;BME280;62290;59.420;17.842;2022-12-18T12:56:50;101498.41;;;23.30;22.09
14293;BME280;62290;59.420;17.842;2022-12-18T12:59:27;101488.22;;;23.23;22.23
14293;BME280;62290;59.420;17.842;2022-12-18T13:02:03;101493.19;;;23.16;22.32
14293;BME280;62290;59.420;17.842;2022-12-18T13:04:36;101480.06;;;23.12;22.26
14293;BME280;62290;59.420;17.842;2022-12-18T13:07:14;101474.19;;;23.07;22.40